Terminal Aerodrome Forecast
Issued by NWS Sterling, VA

Current Version | Previous Version | Text Only | Print | Product List | Glossary On
Versions: 1 2 3 4 5 6 7 8 9 10 11 12 13 14 15 16 17 18 19 20 21 22 23 24 25 26 27 28 29
000
FTUS41 KLWX 270529
TAFIAD
TAF
KIAD 270529Z 2706/2812 18005KT P6SM SCT130
     FM271500 18011G20KT P6SM BKN150
     FM271800 19015G26KT P6SM -SHRA BKN035
     FM272300 19013G21KT P6SM -SHRA OVC010
     FM280900 19017G29KT P6SM -SHRA OVC025 WS020/21040KT=

USA.gov is the U.S. government's official web portal to all federal, state and local government web resources and services.